Saginaw, Arkansas
Current Conditions -  °F | °C
As of 2:10 AM on Tuesday 21 Oct 2014 (Local Time) from KADF Reporting Station
Haze Haze  
Wind Chill: 55°   Ceiling: 200
Heat Index: 55°   Visibility: 5mi
Dew Point: 55°   Wind: 0mph
Humidity: 100%   Direction: NA
Pressure: 30.06"   Gusts: NA
Location:  34.2003°N, 92.9301°W
Report Text: KADF 210710Z AUTO 00000KT 5SM BR BKN002 13/13 A3006 RMK AO2 $
Loading
Personal Weather Stations






























Interactive Weather Map
Tropical Storm Tracking
New forecast layout! Learn more

10-Day Weather Forecast

Advertisements
Track Severe Weather on mobile